createdAt,value
2023-03-05T00:02:53.543Z,100.00
2023-03-05T00:05:57.374Z,100.00
2023-03-05T00:09:00.481Z,100.00
2023-03-05T00:12:04.211Z,100.00
2023-03-05T00:15:07.594Z,100.00
2023-03-05T00:18:09.411Z,100.00
2023-03-05T00:21:21.545Z,100.00
2023-03-05T00:24:24.614Z,100.00
2023-03-05T00:27:28.219Z,100.00
2023-03-05T00:30:33.953Z,100.00
2023-03-05T00:33:36.265Z,100.00
2023-03-05T00:36:40.358Z,100.00
2023-03-05T00:39:42.471Z,100.00
2023-03-05T00:42:47.917Z,100.00
2023-03-05T00:45:49.919Z,100.00
2023-03-05T00:48:51.692Z,100.00
2023-03-05T00:51:53.817Z,100.00
2023-03-05T00:54:55.579Z,100.00
2023-03-05T00:57:59.194Z,100.00
2023-03-05T01:01:02.124Z,100.00
2023-03-05T01:04:04.428Z,100.00
2023-03-05T01:07:06.435Z,100.00
2023-03-05T01:10:09.919Z,100.00
2023-03-05T01:13:15.469Z,100.00
2023-03-05T01:16:17.567Z,100.00
2023-03-05T01:19:19.750Z,100.00
2023-03-05T01:22:21.578Z,100.00
2023-03-05T01:25:25.747Z,100.00
2023-03-05T01:28:31.505Z,100.00
2023-03-05T01:31:36.110Z,100.00
2023-03-05T01:34:39.329Z,100.00
2023-03-05T01:37:41.324Z,100.00
2023-03-05T01:40:44.227Z,100.00
2023-03-05T01:43:48.521Z,100.00
2023-03-05T01:46:50.902Z,100.00
2023-03-05T01:49:52.857Z,100.00
2023-03-05T01:53:01.471Z,100.00
2023-03-05T01:56:04.159Z,100.00
2023-03-05T01:59:08.422Z,100.00
2023-03-05T02:02:10.808Z,100.00
2023-03-05T02:05:17.977Z,100.00
2023-03-05T02:08:23.119Z,100.00
2023-03-05T02:11:24.906Z,100.00
2023-03-05T02:14:29.385Z,100.00
2023-03-05T02:17:31.132Z,100.00
2023-03-05T02:20:45.393Z,100.00
2023-03-05T02:23:49.506Z,100.00
2023-03-05T02:26:51.368Z,100.00
2023-03-05T02:29:53.126Z,100.00
2023-03-05T02:32:55.315Z,100.00
2023-03-05T02:35:58.599Z,100.00
2023-03-05T02:39:02.635Z,100.00
2023-03-05T02:42:04.745Z,100.00
2023-03-05T02:45:08.056Z,100.00
2023-03-05T02:48:12.849Z,100.00
2023-03-05T02:51:15.770Z,100.00
2023-03-05T02:54:19.322Z,100.00
2023-03-05T02:57:21.682Z,100.00
2023-03-05T03:00:24.369Z,100.00
2023-03-05T03:03:26.983Z,100.00
2023-03-05T03:06:28.880Z,100.00
2023-03-05T03:09:34.061Z,100.00
2023-03-05T03:12:37.717Z,100.00
2023-03-05T03:15:39.630Z,100.00
2023-03-05T03:18:42.118Z,100.00
2023-03-05T03:21:44.100Z,100.00
2023-03-05T03:24:47.756Z,100.00
2023-03-05T03:27:49.718Z,100.00
2023-03-05T03:30:51.817Z,100.00
2023-03-05T03:33:55.489Z,100.00
2023-03-05T03:36:57.768Z,100.00
2023-03-05T03:40:02.033Z,100.00
2023-03-05T03:43:04.820Z,100.00
2023-03-05T03:46:07.785Z,100.00
2023-03-05T03:49:16.530Z,100.00
2023-03-05T03:52:18.300Z,100.00
2023-03-05T03:55:21.571Z,100.00
2023-03-05T03:58:23.383Z,100.00
2023-03-05T04:01:25.565Z,100.00
2023-03-05T04:04:27.694Z,100.00
2023-03-05T04:07:29.847Z,100.00
2023-03-05T04:10:34.423Z,100.00
2023-03-05T04:13:36.759Z,100.00
2023-03-05T04:16:40.155Z,100.00
2023-03-05T04:19:42.350Z,100.00
2023-03-05T04:22:44.539Z,100.00
2023-03-05T04:25:48.040Z,100.00
2023-03-05T04:28:50.214Z,100.00
2023-03-05T04:31:52.584Z,100.00
2023-03-05T04:34:55.387Z,100.00
2023-03-05T04:37:57.177Z,100.00
2023-03-05T04:41:00.956Z,100.00
2023-03-05T04:44:02.985Z,100.00
2023-03-05T04:47:05.291Z,100.00
2023-03-05T04:50:10.289Z,100.00
2023-03-05T04:53:12.065Z,100.00
2023-03-05T04:56:15.688Z,100.00
2023-03-05T04:59:17.456Z,100.00
2023-03-05T05:02:19.495Z,100.00
2023-03-05T05:05:23.285Z,100.00
2023-03-05T05:08:25.508Z,100.00
2023-03-05T05:11:28.754Z,100.00
2023-03-05T05:14:30.552Z,100.00
2023-03-05T05:17:32.501Z,100.00
2023-03-05T05:20:35.528Z,100.00
2023-03-05T05:23:37.710Z,100.00
2023-03-05T05:26:43.162Z,100.00
2023-03-05T05:29:45.002Z,100.00
2023-03-05T05:32:46.796Z,100.00
2023-03-05T05:35:52.808Z,100.00
2023-03-05T05:38:54.623Z,100.00
2023-03-05T05:42:06.161Z,100.00
2023-03-05T05:45:12.060Z,100.00
2023-03-05T05:48:14.501Z,100.00
2023-03-05T05:51:22.710Z,100.00
2023-03-05T05:54:26.807Z,100.00
2023-03-05T05:57:31.333Z,100.00
2023-03-05T06:00:33.521Z,100.00
2023-03-05T06:03:35.419Z,100.00
2023-03-05T06:06:37.226Z,100.00
2023-03-05T06:09:41.859Z,100.00
2023-03-05T06:12:46.053Z,100.00
2023-03-05T06:15:57.708Z,100.00
2023-03-05T06:19:04.002Z,100.00
2023-03-05T06:22:06.643Z,100.00
2023-03-05T06:25:10.397Z,100.00
2023-03-05T06:28:14.769Z,100.00
2023-03-05T06:31:18.412Z,100.00
2023-03-05T06:34:20.517Z,100.00
2023-03-05T06:37:25.130Z,100.00
2023-03-05T06:40:26.964Z,100.00
2023-03-05T06:43:32.679Z,100.00
2023-03-05T06:46:37.785Z,100.00
2023-03-05T06:49:41.097Z,100.00
2023-03-05T06:52:43.247Z,100.00
2023-03-05T06:55:44.996Z,100.00
2023-03-05T06:58:52.082Z,100.00
2023-03-05T07:01:54.063Z,100.00
2023-03-05T07:04:56.166Z,100.00
2023-03-05T07:07:57.950Z,100.00
2023-03-05T07:11:01.151Z,100.00
2023-03-05T07:14:09.217Z,100.00
2023-03-05T07:17:18.513Z,100.00
2023-03-05T07:20:20.426Z,100.00
2023-03-05T07:23:23.742Z,100.00
2023-03-05T07:26:26.852Z,100.00
2023-03-05T07:29:30.018Z,100.00
2023-03-05T07:32:34.872Z,100.00
2023-03-05T07:35:40.650Z,100.00
2023-03-05T07:38:42.745Z,100.00
2023-03-05T07:41:45.065Z,100.00
2023-03-05T07:44:48.586Z,100.00
2023-03-05T07:47:52.500Z,100.00
2023-03-05T07:51:01.143Z,100.00
2023-03-05T07:54:04.929Z,100.00
2023-03-05T07:57:07.729Z,100.00
2023-03-05T08:00:12.364Z,100.00
2023-03-05T08:03:14.160Z,100.00
2023-03-05T08:06:16.402Z,100.00
2023-03-05T08:09:19.076Z,100.00
2023-03-05T08:12:21.158Z,100.00
2023-03-05T08:15:24.504Z,100.00
2023-03-05T08:18:27.506Z,100.00
2023-03-05T08:21:31.664Z,100.00
2023-03-05T08:24:33.444Z,100.00
2023-03-05T08:27:39.009Z,100.00
2023-03-05T08:30:42.311Z,100.00
2023-03-05T08:33:44.323Z,100.00
2023-03-05T08:36:47.608Z,100.00
2023-03-05T08:39:49.379Z,100.00
2023-03-05T08:42:51.388Z,100.00
2023-03-05T08:45:54.579Z,100.00
2023-03-05T08:48:56.346Z,100.00
2023-03-05T08:51:58.669Z,100.00
2023-03-05T08:55:00.609Z,100.00
2023-03-05T08:58:02.422Z,100.00
2023-03-05T09:01:06.074Z,100.00
2023-03-05T09:04:07.882Z,100.00
2023-03-05T09:07:11.058Z,100.00
2023-03-05T09:10:13.183Z,100.00
2023-03-05T09:13:14.996Z,100.00
2023-03-05T09:16:20.638Z,100.00
2023-03-05T09:19:22.854Z,100.00
2023-03-05T09:22:24.669Z,100.00
2023-03-05T09:25:27.208Z,100.00
2023-03-05T09:28:29.014Z,100.00
2023-03-05T09:31:33.216Z,100.00
2023-03-05T09:34:35.088Z,100.00
2023-03-05T09:37:37.192Z,100.00
2023-03-05T09:40:45.916Z,100.00
2023-03-05T09:43:59.528Z,100.00
2023-03-05T09:47:17.622Z,100.00
2023-03-05T09:50:33.813Z,100.00
2023-03-05T09:53:39.140Z,100.00
2023-03-05T09:56:43.486Z,100.00
2023-03-05T09:59:50.787Z,100.00
2023-03-05T10:02:57.709Z,100.00
2023-03-05T10:06:06.610Z,100.00
2023-03-05T10:09:17.072Z,100.00
2023-03-05T10:12:27.036Z,100.00
2023-03-05T10:15:40.061Z,100.00
2023-03-05T10:18:52.496Z,100.00
2023-03-05T10:22:15.219Z,100.00
2023-03-05T10:25:23.927Z,100.00
2023-03-05T10:28:34.486Z,100.00
2023-03-05T10:31:57.716Z,100.00
2023-03-05T10:35:19.786Z,100.00
2023-03-05T10:38:46.357Z,100.00
2023-03-05T10:41:57.394Z,100.00
2023-03-05T10:45:01.069Z,100.00
2023-03-05T10:48:15.894Z,100.00
2023-03-05T10:51:23.078Z,100.00
2023-03-05T10:54:28.524Z,100.00
2023-03-05T10:57:32.522Z,100.00
2023-03-05T11:00:34.497Z,100.00
2023-03-05T11:03:55.910Z,100.00
2023-03-05T11:06:59.935Z,100.00
2023-03-05T11:10:24.215Z,100.00
2023-03-05T11:13:27.854Z,99.17
2023-03-05T11:16:32.416Z,99.98
2023-03-05T11:19:35.006Z,100.00
2023-03-05T11:22:38.808Z,100.00
2023-03-05T11:25:59.425Z,100.00
2023-03-05T11:29:02.677Z,100.00
2023-03-05T11:32:21.649Z,100.00
2023-03-05T11:35:32.234Z,99.17
2023-03-05T11:38:45.789Z,100.00
2023-03-05T11:41:51.358Z,96.88
2023-03-05T11:44:55.710Z,99.29
2023-03-05T11:48:01.674Z,100.00
2023-03-05T11:51:15.791Z,95.76
2023-03-05T11:54:25.170Z,96.46
2023-03-05T11:57:29.185Z,95.00
2023-03-05T12:00:34.634Z,96.03
2023-03-05T12:03:41.196Z,93.97
2023-03-05T12:06:48.152Z,95.64
2023-03-05T12:09:54.937Z,95.19
2023-03-05T12:13:05.147Z,91.16
2023-03-05T12:16:42.707Z,90.38
2023-03-05T12:19:53.127Z,92.62
2023-03-05T12:22:58.393Z,92.93
2023-03-05T12:26:01.997Z,94.55
2023-03-05T12:29:04.105Z,95.90
2023-03-05T12:32:27.567Z,91.24
2023-03-05T12:35:35.454Z,94.48
2023-03-05T12:38:37.301Z,94.66
2023-03-05T12:41:40.792Z,92.67
2023-03-05T12:44:43.938Z,93.88
2023-03-05T12:47:48.325Z,92.61
2023-03-05T12:50:53.887Z,94.05
2023-03-05T12:53:57.335Z,91.15
2023-03-05T12:57:03.342Z,90.25
2023-03-05T13:00:15.641Z,90.18
2023-03-05T13:03:20.226Z,90.06
2023-03-05T13:06:26.166Z,92.47
2023-03-05T13:09:30.562Z,92.88
2023-03-05T13:12:53.352Z,92.46
2023-03-05T13:15:57.838Z,93.14
2023-03-05T13:19:02.049Z,92.54
2023-03-05T13:22:11.870Z,94.27
2023-03-05T13:25:16.351Z,97.43
2023-03-05T13:28:21.589Z,96.64
2023-03-05T13:31:25.131Z,95.34
2023-03-05T13:34:37.658Z,96.11
2023-03-05T13:38:00.264Z,97.30
2023-03-05T13:41:22.072Z,94.47
2023-03-05T13:44:26.747Z,94.31
2023-03-05T13:47:34.368Z,98.58
2023-03-05T13:50:40.848Z,98.55
2023-03-05T13:53:44.858Z,94.74
2023-03-05T13:56:56.364Z,95.66
2023-03-05T14:00:01.989Z,95.21
2023-03-05T14:03:11.441Z,96.17
2023-03-05T14:06:19.014Z,97.34
2023-03-05T14:09:24.651Z,99.11
2023-03-05T14:12:35.010Z,97.39
2023-03-05T14:15:39.122Z,97.79
2023-03-05T14:18:55.274Z,97.08
2023-03-05T14:22:00.034Z,100.00
2023-03-05T14:25:03.063Z,100.00
2023-03-05T14:28:21.466Z,100.00
2023-03-05T14:31:28.263Z,98.51
2023-03-05T14:34:33.509Z,97.72
2023-03-05T14:37:39.361Z,98.19
2023-03-05T14:40:42.291Z,97.51
2023-03-05T14:43:46.102Z,100.00
2023-03-05T14:46:51.876Z,100.00
2023-03-05T14:49:56.425Z,97.91
2023-03-05T14:53:00.268Z,99.08
2023-03-05T14:56:04.344Z,98.08
2023-03-05T14:59:09.093Z,96.90
2023-03-05T15:02:18.024Z,95.43
2023-03-05T15:05:21.371Z,96.85
2023-03-05T15:08:27.596Z,96.39
2023-03-05T15:11:31.705Z,94.26
2023-03-05T15:14:34.763Z,96.20
2023-03-05T15:17:41.678Z,96.49
2023-03-05T15:20:45.118Z,94.39
2023-03-05T15:23:48.029Z,97.13
2023-03-05T15:26:51.064Z,96.43
2023-03-05T15:29:54.262Z,93.62
2023-03-05T15:33:01.376Z,94.30
2023-03-05T15:36:05.191Z,93.25
2023-03-05T15:39:08.285Z,93.78
2023-03-05T15:42:11.657Z,94.91
2023-03-05T15:45:15.212Z,94.59
2023-03-05T15:48:19.807Z,92.48
2023-03-05T15:51:22.995Z,95.35
2023-03-05T15:54:25.613Z,92.77
2023-03-05T15:57:29.173Z,94.96
2023-03-05T16:00:35.168Z,95.98
2023-03-05T16:03:39.684Z,96.39
2023-03-05T16:06:45.337Z,96.19
2023-03-05T16:09:50.612Z,95.68
2023-03-05T16:12:58.060Z,96.95
2023-03-05T16:16:02.226Z,96.05
2023-03-05T16:19:12.031Z,96.22
2023-03-05T16:22:16.128Z,98.69
2023-03-05T16:25:19.203Z,98.55
2023-03-05T16:28:23.519Z,99.69
2023-03-05T16:31:30.451Z,99.19
2023-03-05T16:34:35.778Z,100.00
2023-03-05T16:37:45.833Z,100.00
2023-03-05T16:41:07.425Z,100.00
2023-03-05T16:44:11.234Z,100.00
2023-03-05T16:47:14.937Z,100.00
2023-03-05T16:50:18.710Z,100.00
2023-03-05T16:53:22.138Z,100.00
2023-03-05T16:56:29.169Z,100.00
2023-03-05T16:59:32.276Z,100.00
2023-03-05T17:02:35.946Z,100.00
2023-03-05T17:05:43.329Z,100.00
2023-03-05T17:08:48.395Z,100.00
2023-03-05T17:11:55.180Z,100.00
2023-03-05T17:14:58.694Z,100.00
2023-03-05T17:18:02.526Z,100.00
2023-03-05T17:21:08.815Z,100.00
2023-03-05T17:24:11.870Z,100.00
2023-03-05T17:27:15.039Z,100.00
2023-03-05T17:30:18.525Z,100.00
2023-03-05T17:33:21.823Z,100.00
2023-03-05T17:36:26.357Z,100.00
2023-03-05T17:39:32.591Z,100.00
2023-03-05T17:42:35.918Z,100.00
2023-03-05T17:45:42.332Z,100.00
2023-03-05T17:48:45.936Z,100.00
2023-03-05T17:51:50.816Z,100.00
2023-03-05T17:54:53.787Z,100.00
2023-03-05T17:57:57.225Z,100.00
2023-03-05T18:01:01.379Z,100.00
2023-03-05T18:04:04.760Z,100.00
2023-03-05T18:07:09.575Z,100.00
2023-03-05T18:10:13.902Z,99.67
2023-03-05T18:13:19.582Z,99.87
2023-03-05T18:16:24.363Z,100.00
2023-03-05T18:19:27.586Z,98.15
2023-03-05T18:22:33.369Z,100.00
2023-03-05T18:25:36.856Z,98.32
2023-03-05T18:28:44.881Z,100.00
2023-03-05T18:31:48.070Z,100.00
2023-03-05T18:34:52.050Z,100.00
2023-03-05T18:37:57.171Z,100.00
2023-03-05T18:41:03.653Z,100.00
2023-03-05T18:44:11.409Z,100.00
2023-03-05T18:47:16.171Z,100.00
2023-03-05T18:50:20.473Z,100.00
2023-03-05T18:53:25.646Z,100.00
2023-03-05T18:56:31.096Z,100.00
2023-03-05T18:59:33.080Z,100.00
2023-03-05T19:02:37.886Z,100.00
2023-03-05T19:05:43.558Z,100.00
2023-03-05T19:08:48.657Z,100.00
2023-03-05T19:11:51.185Z,100.00
2023-03-05T19:14:54.292Z,100.00
2023-03-05T19:17:58.191Z,100.00
2023-03-05T19:21:01.161Z,100.00
2023-03-05T19:24:06.893Z,100.00
2023-03-05T19:27:11.897Z,100.00
2023-03-05T19:30:15.716Z,100.00
2023-03-05T19:33:18.476Z,100.00
2023-03-05T19:36:23.617Z,100.00
2023-03-05T19:39:28.507Z,100.00
2023-03-05T19:42:32.430Z,100.00
2023-03-05T19:45:36.207Z,100.00
2023-03-05T19:48:39.346Z,100.00
2023-03-05T19:51:44.879Z,100.00
2023-03-05T19:54:50.608Z,100.00
2023-03-05T19:57:54.215Z,100.00
2023-03-05T20:01:07.823Z,100.00
2023-03-05T20:04:14.402Z,100.00
2023-03-05T20:07:18.167Z,100.00
2023-03-05T20:10:23.207Z,100.00
2023-03-05T20:13:28.071Z,100.00
2023-03-05T20:16:33.061Z,100.00
2023-03-05T20:19:38.024Z,100.00
2023-03-05T20:22:43.162Z,100.00
2023-03-05T20:25:48.474Z,100.00
2023-03-05T20:28:54.813Z,100.00
2023-03-05T20:31:57.963Z,100.00
2023-03-05T20:35:00.693Z,100.00
2023-03-05T20:38:03.891Z,100.00
2023-03-05T20:41:09.851Z,100.00
2023-03-05T20:44:12.707Z,100.00
2023-03-05T20:47:15.813Z,100.00
2023-03-05T20:50:22.289Z,100.00
2023-03-05T20:53:28.035Z,100.00
2023-03-05T20:56:34.193Z,100.00
2023-03-05T20:59:37.289Z,100.00
2023-03-05T21:02:42.778Z,100.00
2023-03-05T21:05:45.828Z,100.00
2023-03-05T21:08:49.086Z,100.00
2023-03-05T21:11:54.290Z,100.00
2023-03-05T21:14:56.923Z,100.00
2023-03-05T21:17:59.753Z,100.00
2023-03-05T21:21:04.373Z,100.00
2023-03-05T21:24:07.788Z,100.00
2023-03-05T21:27:12.949Z,100.00
2023-03-05T21:30:17.407Z,100.00
2023-03-05T21:33:22.889Z,100.00
2023-03-05T21:36:25.617Z,100.00
2023-03-05T21:39:29.572Z,100.00
2023-03-05T21:42:37.448Z,100.00
2023-03-05T21:45:40.846Z,100.00
2023-03-05T21:48:42.925Z,100.00
2023-03-05T21:51:44.818Z,100.00
2023-03-05T21:54:46.882Z,100.00
2023-03-05T21:57:50.304Z,100.00
2023-03-05T22:00:52.716Z,100.00
2023-03-05T22:03:54.608Z,100.00
2023-03-05T22:06:57.221Z,100.00
2023-03-05T22:09:59.363Z,100.00
2023-03-05T22:13:02.915Z,100.00
2023-03-05T22:16:05.896Z,100.00
2023-03-05T22:19:07.802Z,100.00
2023-03-05T22:22:09.564Z,100.00
2023-03-05T22:25:13.715Z,100.00
2023-03-05T22:28:17.306Z,100.00
2023-03-05T22:31:23.975Z,100.00
2023-03-05T22:34:27.385Z,100.00
2023-03-05T22:37:29.845Z,100.00
2023-03-05T22:40:31.728Z,100.00
2023-03-05T22:43:35.538Z,100.00
2023-03-05T22:46:37.767Z,100.00
2023-03-05T22:49:40.813Z,100.00
2023-03-05T22:52:43.165Z,100.00
2023-03-05T22:55:44.936Z,100.00
2023-03-05T22:58:48.504Z,100.00
2023-03-05T23:01:50.584Z,100.00
2023-03-05T23:04:52.964Z,100.00
2023-03-05T23:07:55.129Z,100.00
2023-03-05T23:10:57.743Z,100.00
2023-03-05T23:14:08.484Z,100.00
2023-03-05T23:17:10.624Z,100.00
2023-03-05T23:20:15.138Z,100.00
2023-03-05T23:23:16.974Z,100.00
2023-03-05T23:26:20.924Z,100.00
2023-03-05T23:29:24.074Z,100.00
2023-03-05T23:32:28.818Z,100.00
2023-03-05T23:35:32.222Z,100.00
2023-03-05T23:38:34.284Z,100.00
2023-03-05T23:41:38.640Z,100.00
2023-03-05T23:44:41.789Z,100.00
2023-03-05T23:47:45.264Z,100.00
2023-03-05T23:50:48.135Z,100.00
2023-03-05T23:53:52.006Z,100.00
2023-03-05T23:57:02.386Z,100.00
